Time;durP1;ratioP1;P1;durP2;ratioP2;P2;SDS_P1;SDS_P2;PMS_P1;PMS_P2;Temp;Humidity;BMP_temperature;BMP_pressure;BME280_temperature;BME280_humidity;BME280_pressure;Samples;Min_cycle;Max_cycle;Signal;HPM_P1;HPM_P2
2023/10/24 00:02:14;;;;;;;8.70;4.60;;;;;;;6.03;100.00;100234.20;105575;1252;81471;-60
2023/10/24 00:04:43;;;;;;;9.10;5.30;;;;;;;6.04;100.00;100236.80;105558;1256;72351;-60
2023/10/24 00:07:11;;;;;;;5.70;4.30;;;;;;;6.06;100.00;100236.23;105424;1256;69118;-60
2023/10/24 00:09:40;;;;;;;6.80;4.40;;;;;;;6.09;100.00;100238.43;105473;1253;69270;-60
2023/10/24 00:12:08;;;;;;;6.10;4.50;;;;;;;6.13;100.00;100233.67;105630;1255;72439;-60
2023/10/24 00:14:36;;;;;;;6.50;4.30;;;;;;;6.17;100.00;100232.02;105608;1255;83082;-60
2023/10/24 00:17:04;;;;;;;7.00;4.40;;;;;;;6.21;100.00;100233.32;105506;1256;71878;-60
2023/10/24 00:19:33;;;;;;;7.80;4.90;;;;;;;6.28;100.00;100233.86;105558;1253;69179;-60
2023/10/24 00:22:01;;;;;;;7.60;5.00;;;;;;;6.35;100.00;100232.67;105655;1252;69123;-60
2023/10/24 00:24:29;;;;;;;6.20;4.80;;;;;;;6.42;100.00;100227.98;105588;1253;72993;-60
2023/10/24 00:26:58;;;;;;;10.20;5.60;;;;;;;6.53;100.00;100225.12;105525;1252;82613;-60
2023/10/24 00:29:26;;;;;;;11.00;5.20;;;;;;;6.64;100.00;100219.66;105485;1257;71746;-60
2023/10/24 00:31:54;;;;;;;7.10;4.90;;;;;;;6.73;100.00;100211.64;105547;1252;69177;-60
2023/10/24 00:34:23;;;;;;;9.10;5.60;;;;;;;6.81;100.00;100209.88;105555;1255;69180;-60
2023/10/24 00:36:51;;;;;;;8.50;5.00;;;;;;;6.89;100.00;100213.86;105535;1257;72554;-60
2023/10/24 00:39:19;;;;;;;7.90;5.10;;;;;;;6.91;100.00;100219.02;105552;1253;82500;-60
2023/10/24 00:41:47;;;;;;;7.20;4.50;;;;;;;6.97;100.00;100217.13;105633;1253;70154;-60
2023/10/24 00:44:16;;;;;;;6.70;4.80;;;;;;;7.02;100.00;100213.88;105540;1255;69271;-60
2023/10/24 00:46:44;;;;;;;7.20;5.40;;;;;;;7.08;100.00;100212.50;105579;1255;69200;-60
2023/10/24 00:49:13;;;;;;;8.70;5.20;;;;;;;7.13;100.00;100211.50;105465;1253;73390;-60
2023/10/24 00:51:41;;;;;;;7.60;4.80;;;;;;;7.17;100.00;100208.80;105504;1257;81906;-60
2023/10/24 00:54:10;;;;;;;7.80;5.40;;;;;;;7.19;100.00;100203.88;105468;1253;72643;-60
2023/10/24 00:56:39;;;;;;;8.00;5.30;;;;;;;7.22;100.00;100199.46;105575;1255;69193;-60
2023/10/24 00:59:08;;;;;;;10.50;6.70;;;;;;;7.27;100.00;100188.89;105595;1252;69162;-60
2023/10/24 01:01:36;;;;;;;7.80;5.40;;;;;;;7.31;100.00;100179.41;105549;1254;72719;-60
2023/10/24 01:04:05;;;;;;;9.80;6.60;;;;;;;7.34;100.00;100176.20;105434;1253;81657;-60
2023/10/24 01:06:33;;;;;;;8.70;5.70;;;;;;;7.39;100.00;100171.00;105575;1253;71441;-60
2023/10/24 01:09:03;;;;;;;8.90;5.20;;;;;;;7.46;100.00;100164.05;105533;1253;69095;-60
2023/10/24 01:11:32;;;;;;;6.40;4.90;;;;;;;7.51;100.00;100161.30;105581;1252;69147;-60
2023/10/24 01:14:01;;;;;;;8.40;5.50;;;;;;;7.54;100.00;100153.90;105633;1253;71465;-60
2023/10/24 01:16:42;;;;;;;8.80;5.90;;;;;;;7.57;100.00;100149.30;105605;1256;82551;-58
2023/10/24 01:19:11;;;;;;;7.50;4.90;;;;;;;7.58;100.00;100144.05;105576;1255;70886;-58
2023/10/24 01:21:44;;;;;;;7.80;5.00;;;;;;;7.59;100.00;100143.85;105572;1256;69152;-58
2023/10/24 01:24:14;;;;;;;8.00;5.60;;;;;;;7.58;100.00;100148.58;105542;1256;69161;-58
2023/10/24 01:26:43;;;;;;;8.00;5.30;;;;;;;7.56;100.00;100155.91;105586;1253;72930;-58
2023/10/24 01:29:12;;;;;;;5.60;4.40;;;;;;;7.56;100.00;100154.19;105577;1255;83210;-57
2023/10/24 01:31:41;;;;;;;7.10;4.80;;;;;;;7.55;100.00;100154.59;105562;1253;70152;-58
2023/10/24 01:34:09;;;;;;;9.00;5.00;;;;;;;7.52;100.00;100154.99;105609;1256;69201;-58
2023/10/24 01:36:38;;;;;;;9.10;5.20;;;;;;;7.52;100.00;100157.60;105614;1253;69084;-57
2023/10/24 01:39:07;;;;;;;10.10;5.40;;;;;;;7.52;100.00;100158.64;105521;1253;73953;-57
2023/10/24 01:41:35;;;;;;;6.80;4.80;;;;;;;7.51;100.00;100152.42;105456;1257;81570;-57
2023/10/24 01:44:03;;;;;;;6.60;4.80;;;;;;;7.49;100.00;100152.33;105457;1253;72911;-58
2023/10/24 01:46:32;;;;;;;8.20;5.00;;;;;;;7.47;100.00;100145.23;105615;1256;69140;-58
2023/10/24 01:49:00;;;;;;;6.60;4.80;;;;;;;7.50;100.00;100144.12;105551;1255;69111;-58
2023/10/24 01:51:28;;;;;;;8.20;4.90;;;;;;;7.48;100.00;100143.48;105581;1256;73783;-58
2023/10/24 01:53:57;;;;;;;10.90;5.20;;;;;;;7.46;100.00;100138.67;105577;1253;81123;-57
2023/10/24 01:56:25;;;;;;;7.80;5.30;;;;;;;7.47;100.00;100133.08;105558;1253;70860;-57
2023/10/24 01:58:53;;;;;;;11.00;5.30;;;;;;;7.46;100.00;100134.31;105617;1253;69153;-58
2023/10/24 02:01:21;;;;;;;10.00;6.30;;;;;;;7.46;100.00;100139.20;105509;1258;69187;-59
2023/10/24 02:03:51;;;;;;;7.70;5.40;;;;;;;7.47;100.00;100134.80;105587;1253;73902;-61
2023/10/24 02:06:19;;;;;;;9.10;5.70;;;;;;;7.50;100.00;100138.02;105610;1255;81588;-59
2023/10/24 02:08:47;;;;;;;6.70;5.20;;;;;;;7.53;100.00;100139.14;105606;1251;73102;-59
2023/10/24 02:11:15;;;;;;;7.60;5.30;;;;;;;7.54;100.00;100135.48;105481;1254;69164;-61
2023/10/24 02:13:43;;;;;;;6.90;4.80;;;;;;;7.55;100.00;100133.33;105460;1257;69193;-59
2023/10/24 02:16:12;;;;;;;9.00;6.40;;;;;;;7.56;100.00;100130.37;105530;1253;72578;-59
2023/10/24 02:18:40;;;;;;;8.60;5.30;;;;;;;7.57;100.00;100123.02;105546;1252;81303;-59
2023/10/24 02:21:08;;;;;;;8.10;6.30;;;;;;;7.61;100.00;100116.83;105444;1253;71984;-59
2023/10/24 02:23:37;;;;;;;8.30;5.70;;;;;;;7.65;100.00;100108.22;105525;1252;69146;-59
2023/10/24 02:26:05;;;;;;;11.50;5.50;;;;;;;7.66;100.00;100109.55;105564;1253;69222;-59
2023/10/24 02:28:33;;;;;;;11.20;6.00;;;;;;;7.68;100.00;100109.33;105499;1254;73040;-59
2023/10/24 02:31:02;;;;;;;12.70;5.90;;;;;;;7.70;100.00;100111.17;105546;1256;82515;-59
2023/10/24 02:33:31;;;;;;;8.10;5.60;;;;;;;7.70;100.00;100105.43;105576;1255;71654;-59
2023/10/24 02:36:10;;;;;;;11.60;6.50;;;;;;;7.71;100.00;100102.10;105486;1257;69154;-59
2023/10/24 02:38:38;;;;;;;10.40;6.00;;;;;;;7.72;100.00;100095.48;105577;1256;69183;-59
2023/10/24 02:41:06;;;;;;;8.70;6.10;;;;;;;7.71;100.00;100092.73;105543;1253;73231;-59
2023/10/24 02:43:35;;;;;;;8.80;5.70;;;;;;;7.70;100.00;100094.13;105635;1253;82004;-59
2023/10/24 02:46:04;;;;;;;14.50;6.90;;;;;;;7.71;100.00;100094.46;105531;1253;73242;-59
2023/10/24 02:48:33;;;;;;;11.10;6.80;;;;;;;7.75;100.00;100093.98;105566;1253;69103;-59
2023/10/24 02:51:02;;;;;;;11.40;6.80;;;;;;;7.78;100.00;100090.77;105548;1255;69419;-59
2023/10/24 02:53:31;;;;;;;12.30;7.30;;;;;;;7.81;100.00;100086.30;105551;1253;73001;-59
2023/10/24 02:56:03;;;;;;;11.10;6.20;;;;;;;7.81;100.00;100092.77;105555;1253;80064;-59
2023/10/24 02:58:31;;;;;;;9.40;6.00;;;;;;;7.81;100.00;100101.11;105579;1253;71979;-59
2023/10/24 03:01:04;;;;;;;10.40;6.50;;;;;;;7.86;100.00;100097.14;105572;1255;69186;-59
2023/10/24 03:03:33;;;;;;;11.10;6.40;;;;;;;7.90;100.00;100091.11;105595;1256;69163;-59
2023/10/24 03:06:01;;;;;;;9.60;5.80;;;;;;;7.91;100.00;100091.96;105552;1253;74141;-59
2023/10/24 03:08:29;;;;;;;16.20;7.80;;;;;;;7.90;100.00;100107.09;105560;1256;82498;-59
2023/10/24 03:10:58;;;;;;;18.20;9.80;;;;;;;7.94;100.00;100110.98;105562;1253;71989;-59
2023/10/24 03:13:26;;;;;;;12.70;8.30;;;;;;;8.00;100.00;100108.68;105517;1253;69090;-59
2023/10/24 03:15:54;;;;;;;11.70;8.10;;;;;;;8.06;100.00;100107.48;105445;1257;69123;-59
2023/10/24 03:18:23;;;;;;;12.10;7.40;;;;;;;8.10;100.00;100108.92;105510;1253;72706;-59
2023/10/24 03:20:51;;;;;;;13.40;7.60;;;;;;;8.12;100.00;100098.41;105545;1254;81621;-59
2023/10/24 03:23:20;;;;;;;12.30;8.00;;;;;;;8.14;100.00;100092.95;105615;1253;71451;-59
2023/10/24 03:25:50;;;;;;;10.10;7.60;;;;;;;8.17;100.00;100089.38;105518;1251;69141;-59
2023/10/24 03:28:18;;;;;;;10.50;7.40;;;;;;;8.19;100.00;100096.44;105564;1253;69513;-59
2023/10/24 03:30:48;;;;;;;12.40;8.10;;;;;;;8.22;100.00;100100.88;105546;1253;74207;-59
2023/10/24 03:33:16;;;;;;;12.60;7.30;;;;;;;8.25;100.00;100102.00;105594;1253;81531;-60
2023/10/24 03:35:44;;;;;;;14.50;8.00;;;;;;;8.26;100.00;100101.60;105551;1253;71717;-58
2023/10/24 03:38:12;;;;;;;11.60;7.60;;;;;;;8.28;100.00;100096.67;105492;1255;69134;-58
2023/10/24 03:40:40;;;;;;;13.80;7.40;;;;;;;8.30;100.00;100097.16;105517;1253;69215;-58
2023/10/24 03:43:09;;;;;;;12.80;7.80;;;;;;;8.31;100.00;100096.41;105522;1252;74171;-58
2023/10/24 03:45:37;;;;;;;12.50;7.20;;;;;;;8.35;100.00;100101.69;105623;1256;81531;-58
2023/10/24 03:48:05;;;;;;;13.30;7.60;;;;;;;8.37;100.00;100101.27;105492;1253;70514;-58
2023/10/24 03:50:38;;;;;;;12.50;7.90;;;;;;;8.38;100.00;100099.48;105520;1255;69112;-58
2023/10/24 03:53:06;;;;;;;13.10;7.80;;;;;;;8.41;100.00;100092.63;105581;1253;69175;-59
2023/10/24 03:55:34;;;;;;;10.70;7.10;;;;;;;8.43;100.00;100088.05;105579;1253;74137;-58
2023/10/24 03:58:03;;;;;;;10.10;7.40;;;;;;;8.45;100.00;100087.79;105497;1252;81421;-58
2023/10/24 04:00:31;;;;;;;11.70;7.60;;;;;;;8.46;100.00;100079.59;105480;1256;70676;-58
2023/10/24 04:03:00;;;;;;;11.40;7.50;;;;;;;8.50;100.00;100078.59;105552;1255;69085;-59
2023/10/24 04:05:32;;;;;;;13.80;7.50;;;;;;;8.50;100.00;100081.52;105630;1256;69199;-59
2023/10/24 04:08:02;;;;;;;14.50;8.30;;;;;;;8.52;100.00;100083.22;105583;1255;71462;-58
2023/10/24 04:10:33;;;;;;;14.10;7.90;;;;;;;8.51;100.00;100080.80;105585;1255;80363;-59
2023/10/24 04:13:02;;;;;;;12.80;8.20;;;;;;;8.51;100.00;100071.41;105601;1255;71589;-59
2023/10/24 04:15:30;;;;;;;13.90;8.30;;;;;;;8.51;100.00;100059.73;105552;1253;69125;-59
2023/10/24 04:17:58;;;;;;;14.30;8.90;;;;;;;8.53;100.00;100055.48;105540;1253;69196;-59
2023/10/24 04:20:26;;;;;;;13.20;8.20;;;;;;;8.55;100.00;100043.42;105556;1253;74200;-57
2023/10/24 04:22:54;;;;;;;12.60;8.90;;;;;;;8.55;100.00;100032.63;105507;1255;81447;-58
2023/10/24 04:25:22;;;;;;;12.90;8.50;;;;;;;8.56;100.00;100023.51;105500;1255;72614;-58
2023/10/24 04:27:51;;;;;;;11.10;7.80;;;;;;;8.59;100.00;100027.59;105488;1253;69190;-57
2023/10/24 04:30:19;;;;;;;11.60;8.40;;;;;;;8.61;100.00;100030.31;105545;1253;69076;-58
2023/10/24 04:32:47;;;;;;;14.20;8.80;;;;;;;8.61;100.00;100025.95;105464;1255;74007;-58
2023/10/24 04:35:15;;;;;;;10.60;7.40;;;;;;;8.62;100.00;100025.05;105450;1256;81482;-58
2023/10/24 04:37:46;;;;;;;10.90;7.20;;;;;;;8.63;100.00;100024.65;105478;1253;70838;-58
2023/10/24 04:40:14;;;;;;;12.40;7.40;;;;;;;8.65;100.00;100021.27;105536;1256;69369;-58
2023/10/24 04:42:43;;;;;;;11.50;8.50;;;;;;;8.67;100.00;100006.07;105548;1256;69279;-58
2023/10/24 04:45:11;;;;;;;10.60;7.40;;;;;;;8.68;100.00;100012.13;105550;1253;71543;-57
2023/10/24 04:47:40;;;;;;;13.80;8.40;;;;;;;8.67;100.00;100013.90;105502;1256;81602;-57
2023/10/24 04:50:09;;;;;;;13.10;7.50;;;;;;;8.65;100.00;100011.88;105588;1253;71746;-58
2023/10/24 04:52:37;;;;;;;14.30;8.10;;;;;;;8.64;100.00;100013.12;105561;1255;69115;-57
2023/10/24 04:55:06;;;;;;;13.70;8.30;;;;;;;8.64;100.00;100013.28;105436;1257;69175;-57
2023/10/24 04:57:34;;;;;;;11.90;7.80;;;;;;;8.64;100.00;100008.95;105491;1253;74186;-57
2023/10/24 05:00:03;;;;;;;12.60;7.70;;;;;;;8.63;100.00;100010.22;105465;1257;81640;-58
2023/10/24 05:02:31;;;;;;;14.90;8.30;;;;;;;8.63;100.00;100017.52;105482;1253;71887;-58
2023/10/24 05:05:00;;;;;;;17.40;8.60;;;;;;;8.63;100.00;100022.20;105499;1257;69269;-58
2023/10/24 05:07:28;;;;;;;13.50;7.30;;;;;;;8.65;100.00;100031.91;105473;1253;69114;-57
2023/10/24 05:09:56;;;;;;;15.30;8.10;;;;;;;8.67;100.00;100033.77;105487;1253;72655;-58
2023/10/24 05:12:24;;;;;;;13.10;8.80;;;;;;;8.70;100.00;100028.58;105454;1253;81206;-58
2023/10/24 05:14:53;;;;;;;13.30;7.70;;;;;;;8.72;100.00;100016.51;105446;1253;71577;-58
2023/10/24 05:17:21;;;;;;;11.30;7.60;;;;;;;8.73;100.00;100018.40;105455;1253;69182;-58
2023/10/24 05:19:49;;;;;;;14.50;7.90;;;;;;;8.71;100.00;100020.54;105521;1255;69225;-57
2023/10/24 05:22:17;;;;;;;12.10;8.10;;;;;;;8.69;100.00;100024.61;105508;1253;73720;-58
2023/10/24 05:24:45;;;;;;;15.70;8.40;;;;;;;8.69;100.00;100026.19;105515;1255;81401;-58
2023/10/24 05:27:13;;;;;;;13.90;7.90;;;;;;;8.70;100.00;100025.96;105420;1253;73028;-58
2023/10/24 05:29:42;;;;;;;12.20;8.50;;;;;;;8.72;100.00;100023.98;105478;1253;69421;-58
2023/10/24 05:32:11;;;;;;;13.40;7.80;;;;;;;8.72;100.00;100027.13;105501;1257;69212;-58
2023/10/24 05:34:39;;;;;;;15.50;8.10;;;;;;;8.73;100.00;100022.05;105542;1257;73214;-59
2023/10/24 05:37:08;;;;;;;15.80;8.60;;;;;;;8.76;100.00;100022.30;105483;1253;80260;-59
2023/10/24 05:39:36;;;;;;;15.30;8.40;;;;;;;8.79;100.00;100027.23;105592;1256;71638;-59
2023/10/24 05:42:04;;;;;;;16.80;8.30;;;;;;;8.81;100.00;100019.86;105579;1253;69146;-58
2023/10/24 05:44:32;;;;;;;11.20;8.00;;;;;;;8.81;100.00;100014.09;105564;1256;69155;-61
2023/10/24 05:47:00;;;;;;;15.20;8.80;;;;;;;8.83;100.00;100011.23;105713;1253;74174;-61
2023/10/24 05:49:29;;;;;;;15.00;8.90;;;;;;;8.87;100.00;100009.33;105611;1256;82836;-60
2023/10/24 05:51:57;;;;;;;14.70;8.80;;;;;;;8.90;100.00;100015.70;105726;1255;71828;-60
2023/10/24 05:54:25;;;;;;;15.30;8.60;;;;;;;8.91;100.00;100017.41;105501;1253;69152;-60
2023/10/24 05:56:54;;;;;;;14.20;8.50;;;;;;;8.92;100.00;100010.20;105519;1257;69272;-60
2023/10/24 05:59:22;;;;;;;17.40;9.40;;;;;;;8.94;100.00;100009.42;105715;1253;73198;-61
2023/10/24 06:01:50;;;;;;;14.70;8.90;;;;;;;8.96;100.00;100007.27;105496;1257;81618;-61
2023/10/24 06:04:18;;;;;;;18.10;9.00;;;;;;;8.98;100.00;100003.20;105553;1253;73007;-60
2023/10/24 06:06:46;;;;;;;15.10;9.20;;;;;;;9.01;100.00;100006.60;105569;1256;69118;-60
2023/10/24 06:09:14;;;;;;;14.00;8.80;;;;;;;9.04;100.00;100011.20;105533;1259;69218;-60
2023/10/24 06:11:43;;;;;;;16.30;9.30;;;;;;;9.05;100.00;100010.46;105740;1253;74686;-61
2023/10/24 06:14:11;;;;;;;15.20;9.00;;;;;;;9.06;100.00;100015.78;105600;1255;81851;-60
2023/10/24 06:16:39;;;;;;;15.60;8.80;;;;;;;9.07;100.00;100021.16;105581;1252;70980;-61
2023/10/24 06:19:07;;;;;;;16.90;9.20;;;;;;;9.09;100.00;100019.68;105670;1256;69169;-60
2023/10/24 06:21:35;;;;;;;16.10;9.30;;;;;;;9.11;100.00;100016.11;105569;1253;69115;-61
2023/10/24 06:24:04;;;;;;;16.70;9.10;;;;;;;9.13;100.00;100002.97;105482;1253;72806;-60
2023/10/24 06:26:32;;;;;;;16.20;9.00;;;;;;;9.15;100.00;99996.11;105721;1253;83072;-61
2023/10/24 06:29:00;;;;;;;15.70;9.50;;;;;;;9.19;100.00;99997.00;105598;1254;73426;-61
2023/10/24 06:31:28;;;;;;;15.80;9.10;;;;;;;9.24;100.00;99995.95;105833;1256;69126;-61
2023/10/24 06:33:59;;;;;;;16.10;8.90;;;;;;;9.28;100.00;99989.88;105665;1253;69084;-61
2023/10/24 06:36:27;;;;;;;;;;;;;;;9.34;100.00;99991.22;105639;1253;73804;-61
2023/10/24 06:38:55;;;;;;;12.50;8.60;;;;;;;9.37;100.00;99991.59;105598;1256;81450;-61
2023/10/24 06:41:24;;;;;;;15.10;9.00;;;;;;;9.43;100.00;99992.95;105532;1253;71763;-60
2023/10/24 06:43:52;;;;;;;17.50;10.00;;;;;;;9.49;100.00;99992.20;105655;1256;69113;-60
2023/10/24 06:46:22;;;;;;;13.50;8.30;;;;;;;9.54;100.00;99991.45;105548;1253;69115;-61
2023/10/24 06:48:52;;;;;;;16.30;9.40;;;;;;;9.60;100.00;99999.79;105755;1255;71554;-61
2023/10/24 06:51:20;;;;;;;15.20;8.90;;;;;;;9.65;100.00;100004.13;105760;1256;81631;-61
2023/10/24 06:53:48;;;;;;;16.60;9.10;;;;;;;9.70;100.00;100008.45;105491;1253;73663;-60
2023/10/24 06:56:16;;;;;;;15.90;8.90;;;;;;;9.76;100.00;100012.77;105519;1253;69107;-60
2023/10/24 06:58:48;;;;;;;17.30;10.30;;;;;;;9.86;100.00;100013.79;105502;1257;69165;-59
2023/10/24 07:01:16;;;;;;;16.30;9.20;;;;;;;9.92;100.00;100001.13;105598;1253;73929;-59
2023/10/24 07:03:45;;;;;;;13.80;9.30;;;;;;;9.97;100.00;99991.31;105552;1254;80215;-58
2023/10/24 07:06:13;;;;;;;15.80;9.10;;;;;;;10.03;100.00;99980.27;105536;1253;72882;-59
2023/10/24 07:08:42;;;;;;;16.30;9.50;;;;;;;10.09;100.00;99976.02;105634;1255;69129;-60
2023/10/24 07:11:10;;;;;;;18.10;9.90;;;;;;;10.14;100.00;99975.97;105477;1256;69015;-59
2023/10/24 07:13:38;;;;;;;14.10;8.80;;;;;;;10.19;100.00;99972.42;105493;1257;72345;-59
2023/10/24 07:16:16;;;;;;;15.90;9.20;;;;;;;10.24;100.00;99984.61;105461;1257;81984;-59
2023/10/24 07:18:44;;;;;;;16.40;9.00;;;;;;;10.32;100.00;99982.58;105685;1254;72755;-60
2023/10/24 07:21:15;;;;;;;13.20;8.50;;;;;;;10.36;100.00;99979.59;105477;1256;69173;-60
2023/10/24 07:23:43;;;;;;;14.90;8.10;;;;;;;10.41;100.00;99975.88;105442;1258;69162;-59
2023/10/24 07:26:12;;;;;;;14.40;9.00;;;;;;;10.49;100.00;99971.52;105372;1256;74120;-60
2023/10/24 07:28:40;;;;;;;13.00;8.90;;;;;;;10.56;100.00;99967.23;105553;1258;81681;-60
2023/10/24 07:31:08;;;;;;;14.20;8.70;;;;;;;10.62;100.00;99962.91;105434;1258;72291;-59
2023/10/24 07:33:36;;;;;;;16.40;10.20;;;;;;;10.68;100.00;99962.32;105795;1254;69123;-60
2023/10/24 07:36:06;;;;;;;15.60;8.50;;;;;;;10.71;100.00;99957.80;105478;1253;69453;-59
2023/10/24 07:38:35;;;;;;;18.00;9.30;;;;;;;10.76;100.00;99958.84;105715;1255;72879;-59
2023/10/24 07:41:03;;;;;;;15.80;9.20;;;;;;;10.80;100.00;99960.40;105469;1257;81965;-59
2023/10/24 07:43:32;;;;;;;14.50;8.80;;;;;;;10.85;100.00;99959.98;105512;1253;71788;-59
2023/10/24 07:46:00;;;;;;;15.60;9.50;;;;;;;10.89;100.00;99955.58;105557;1256;69106;-59
2023/10/24 07:48:28;;;;;;;19.00;9.60;;;;;;;10.94;100.00;99951.86;105569;1254;69064;-59
2023/10/24 07:50:57;;;;;;;15.00;9.60;;;;;;;10.97;100.00;99951.03;105581;1254;73800;-59
2023/10/24 07:53:26;;;;;;;16.70;9.40;;;;;;;11.02;100.00;99947.16;107653;1255;81794;-59
2023/10/24 07:55:54;;;;;;;14.90;9.60;;;;;;;11.06;100.00;99938.23;105522;1254;71871;-59
2023/10/24 07:58:22;;;;;;;15.40;8.70;;;;;;;11.07;100.00;99927.86;105478;1252;69178;-59
2023/10/24 08:00:50;;;;;;;14.40;9.00;;;;;;;11.09;100.00;99919.03;105519;1253;69413;-59
2023/10/24 08:03:19;;;;;;;15.80;9.40;;;;;;;11.10;100.00;99906.73;105513;1254;72825;-59
2023/10/24 08:05:47;;;;;;;16.40;9.90;;;;;;;11.12;100.00;99905.25;105549;1256;81765;-59
2023/10/24 08:08:16;;;;;;;15.90;9.20;;;;;;;11.13;100.00;99900.45;105440;1256;71905;-59
2023/10/24 08:10:44;;;;;;;15.10;9.00;;;;;;;11.18;100.00;99902.34;105487;1254;69135;-59
2023/10/24 08:13:12;;;;;;;16.00;9.00;;;;;;;11.23;100.00;99898.95;105490;1255;69209;-60
2023/10/24 08:15:43;;;;;;;15.70;9.40;;;;;;;11.27;100.00;99898.58;105521;1253;73009;-59
2023/10/24 08:18:11;;;;;;;18.40;9.60;;;;;;;11.31;100.00;99895.08;105518;1253;80611;-59
2023/10/24 08:20:39;;;;;;;16.50;9.00;;;;;;;11.36;100.00;99896.21;105537;1254;72648;-59
2023/10/24 08:23:07;;;;;;;16.90;9.90;;;;;;;11.43;100.00;99893.60;105521;1254;69133;-59
2023/10/24 08:25:35;;;;;;;16.60;10.20;;;;;;;11.49;100.00;99893.84;105561;1256;69267;-59
2023/10/24 08:28:04;;;;;;;14.40;9.40;;;;;;;11.53;100.00;99889.25;105502;1256;73974;-59
2023/10/24 08:30:32;;;;;;;17.30;9.70;;;;;;;11.60;100.00;99887.69;105458;1256;81501;-59
2023/10/24 08:33:00;;;;;;;19.10;9.50;;;;;;;11.70;100.00;99877.92;105458;1253;71641;-59
2023/10/24 08:35:29;;;;;;;15.90;9.40;;;;;;;11.80;100.00;99872.16;105494;1259;69124;-59
2023/10/24 08:37:57;;;;;;;15.10;10.10;;;;;;;11.87;100.00;99873.29;105484;1255;69177;-59
2023/10/24 08:40:27;;;;;;;16.90;9.80;;;;;;;11.91;100.00;99874.11;105507;1253;72967;-59
2023/10/24 08:42:55;;;;;;;;;;;;;;;11.96;100.00;99865.27;105530;1256;82067;-59
2023/10/24 08:45:25;;;;;;;16.00;9.70;;;;;;;12.00;100.00;99876.06;105509;1253;73993;-59
2023/10/24 08:47:53;;;;;;;18.60;10.00;;;;;;;12.10;100.00;99873.30;105529;1255;69138;-59
2023/10/24 08:50:22;;;;;;;16.90;10.00;;;;;;;12.20;100.00;99862.45;105538;1254;69197;-59
2023/10/24 08:52:51;;;;;;;15.20;9.30;;;;;;;12.33;100.00;99866.52;105501;1253;72849;-59
2023/10/24 08:55:19;;;;;;;20.10;10.40;;;;;;;12.44;100.00;99855.06;105499;1255;81372;-59
2023/10/24 08:57:48;;;;;;;15.00;9.10;;;;;;;12.52;100.00;99845.88;105451;1254;72569;-59
2023/10/24 09:00:16;;;;;;;16.60;10.10;;;;;;;12.57;100.00;99848.73;105623;1255;69093;-59
2023/10/24 09:02:45;;;;;;;17.10;9.40;;;;;;;12.65;100.00;99839.17;105485;1253;69147;-59
2023/10/24 09:05:14;;;;;;;17.50;9.80;;;;;;;12.74;100.00;99834.33;105436;1253;152356;-60
2023/10/24 09:07:43;;;;;;;17.40;9.70;;;;;;;12.82;100.00;99836.54;105530;1256;82749;-59
2023/10/24 09:10:11;;;;;;;16.80;9.90;;;;;;;12.90;100.00;99831.71;105540;1256;72977;-60
2023/10/24 09:12:39;;;;;;;16.40;9.40;;;;;;;13.02;100.00;99828.02;105488;1255;69157;-61
2023/10/24 09:15:11;;;;;;;16.20;9.60;;;;;;;13.15;100.00;99825.55;105538;1255;69176;-61
2023/10/24 09:17:40;;;;;;;19.10;9.70;;;;;;;13.28;100.00;99815.71;105511;1253;74242;-61
2023/10/24 09:20:09;;;;;;;15.60;9.80;;;;;;;13.42;100.00;99803.86;105561;1253;80603;-61
2023/10/24 09:22:40;;;;;;;17.50;9.70;;;;;;;13.54;100.00;99798.61;105529;1253;71738;-61
2023/10/24 09:25:08;;;;;;;14.70;9.10;;;;;;;13.66;100.00;99802.10;105514;1253;69110;-60
2023/10/24 09:27:37;;;;;;;12.50;8.50;;;;;;;13.78;100.00;99799.45;105615;1256;69079;-62
2023/10/24 09:30:13;;;;;;;16.30;8.60;;;;;;;13.87;100.00;99805.25;105495;1253;72954;-59
2023/10/24 09:32:41;;;;;;;12.60;8.60;;;;;;;13.95;100.00;99800.20;105501;1255;81649;-59
2023/10/24 09:35:10;;;;;;;15.20;9.00;;;;;;;14.04;100.00;99803.68;105521;1256;71476;-59
2023/10/24 09:37:44;;;;;;;13.90;8.70;;;;;;;14.17;100.00;99806.07;105571;1256;69122;-60
2023/10/24 09:40:13;;;;;;;13.70;8.10;;;;;;;14.30;100.00;99802.44;105525;1255;69008;-60
2023/10/24 09:42:42;;;;;;;16.50;8.40;;;;;;;14.44;100.00;99803.84;105463;1256;74369;-60
2023/10/24 09:45:11;;;;;;;12.60;8.30;;;;;;;14.49;100.00;99800.54;105533;1253;81598;-60
2023/10/24 09:47:41;;;;;;;12.70;7.90;;;;;;;14.59;100.00;99793.61;105486;1257;71907;-60
2023/10/24 09:50:12;;;;;;;14.30;8.90;;;;;;;14.69;100.00;99790.49;105484;1255;69205;-59
2023/10/24 09:52:41;;;;;;;14.40;8.30;;;;;;;14.75;100.00;99795.27;105546;1255;69136;-60
2023/10/24 09:55:13;;;;;;;16.00;8.40;;;;;;;14.77;100.00;99797.59;105611;1255;73009;-60
2023/10/24 09:57:44;;;;;;;14.20;7.60;;;;;;;14.79;100.00;99799.05;105502;1255;80764;-60
2023/10/24 10:00:13;;;;;;;16.30;8.20;;;;;;;14.81;100.00;99801.54;105520;1257;72924;-60
2023/10/24 10:02:46;;;;;;;12.00;7.80;;;;;;;14.81;100.00;99808.21;105400;1257;69187;-60
2023/10/24 10:05:14;;;;;;;14.30;8.70;;;;;;;14.85;100.00;99806.23;105409;1257;69125;-60
2023/10/24 10:07:49;;;;;;;17.90;9.10;;;;;;;14.89;100.00;99809.95;105513;1253;73366;-60
2023/10/24 10:10:19;;;;;;;12.60;7.60;;;;;;;14.97;100.00;99811.42;105574;1255;80405;-60
2023/10/24 10:12:47;;;;;;;;;;;;;;;15.03;100.00;99800.84;105559;1256;72424;-60
2023/10/24 10:15:25;;;;;;;13.00;7.90;;;;;;;15.10;100.00;99790.86;105462;1259;69267;-60
2023/10/24 10:18:16;;;;;;;14.90;8.00;;;;;;;15.20;100.00;99780.69;105496;1257;69122;-60
2023/10/24 10:20:50;;;;;;;13.80;8.00;;;;;;;15.42;100.00;99779.05;105458;1256;73012;-59
2023/10/24 10:23:30;;;;;;;12.50;8.80;;;;;;;15.61;100.00;99771.09;105496;1257;81801;-59
2023/10/24 10:26:39;;;;;;;14.10;7.80;;;;;;;15.83;100.00;99751.29;105491;1255;72057;-60
2023/10/24 10:29:18;;;;;;;14.60;7.50;;;;;;;15.98;100.00;99733.14;105527;1256;69177;-60
2023/10/24 10:31:57;;;;;;;11.30;7.40;;;;;;;16.09;100.00;99722.04;105569;1254;69184;-59
2023/10/24 10:34:45;;;;;;;13.40;7.70;;;;;;;16.22;99.99;99705.34;105487;1255;72989;-60
2023/10/24 10:37:14;;;;;;;11.30;7.10;;;;;;;16.24;99.14;99700.96;105449;1255;82806;-60
2023/10/24 10:40:24;;;;;;;12.50;6.70;;;;;;;16.31;99.07;99700.35;105442;1256;72994;-60
2023/10/24 10:42:52;;;;;;;17.60;7.80;;;;;;;16.44;98.71;99695.86;105501;1257;69187;-60
2023/10/24 10:45:29;;;;;;;11.80;7.50;;;;;;;16.55;98.51;99693.16;105479;1258;69174;-60
2023/10/24 10:48:00;;;;;;;12.40;6.50;;;;;;;16.63;98.17;99685.46;106625;1255;71829;-60
2023/10/24 10:50:30;;;;;;;11.10;6.80;;;;;;;16.79;98.00;99680.61;105503;1254;82158;-60
2023/10/24 10:53:24;;;;;;;10.00;5.90;;;;;;;16.97;98.06;99680.86;105528;1254;72102;-60
2023/10/24 10:56:18;;;;;;;7.90;6.00;;;;;;;17.13;97.59;99685.33;105389;1256;69127;-60
2023/10/24 10:58:55;;;;;;;14.60;6.80;;;;;;;17.17;96.98;99687.34;105472;1256;69206;-60
2023/10/24 11:01:33;;;;;;;11.70;6.00;;;;;;;17.16;96.58;99681.87;105534;1255;73116;-60
2023/10/24 11:04:02;;;;;;;8.90;5.70;;;;;;;17.19;96.39;99668.66;105471;1257;82764;-60
2023/10/24 11:06:31;;;;;;;9.00;5.10;;;;;;;17.22;96.48;99657.68;105520;1256;72997;-60
2023/10/24 11:09:07;;;;;;;8.80;5.30;;;;;;;17.24;96.15;99661.35;105474;1256;69159;-60
2023/10/24 11:11:37;;;;;;;9.70;4.90;;;;;;;17.27;96.16;99656.56;105520;1254;69113;-60
2023/10/24 11:14:35;;;;;;;15.00;6.10;;;;;;;17.30;96.12;99660.52;105504;1255;74243;-60
2023/10/24 11:17:03;;;;;;;7.60;4.20;;;;;;;17.29;95.49;99663.96;105463;1255;80423;-60
2023/10/24 11:19:33;;;;;;;10.00;4.70;;;;;;;17.19;94.94;99671.26;105498;1254;72745;-60
2023/10/24 11:22:01;;;;;;;11.10;4.50;;;;;;;17.11;95.04;99671.30;105506;1264;69060;-59
2023/10/24 11:24:30;;;;;;;10.10;4.40;;;;;;;17.07;94.87;99672.16;105586;1255;69205;-60